createdAt,value
2019-03-29T00:01:36.322Z,16.80
2019-03-29T00:05:41.099Z,14.20
2019-03-29T00:09:45.839Z,18.40
2019-03-29T00:13:50.599Z,13.80
2019-03-29T00:17:55.365Z,15.20
2019-03-29T00:22:00.136Z,17.53
2019-03-29T00:26:04.910Z,19.13
2019-03-29T00:30:09.689Z,19.47
2019-03-29T00:34:15.887Z,15.47
2019-03-29T00:38:20.814Z,19.37
2019-03-29T00:42:25.646Z,17.33
2019-03-29T00:46:30.493Z,20.87
2019-03-29T00:50:35.296Z,17.50
2019-03-29T00:54:40.096Z,19.83
2019-03-29T00:58:44.972Z,16.80
2019-03-29T01:02:49.877Z,21.40
2019-03-29T01:06:54.707Z,17.40
2019-03-29T01:10:59.484Z,17.13
2019-03-29T01:15:05.171Z,16.27
2019-03-29T01:19:09.914Z,16.57
2019-03-29T01:23:14.749Z,19.13
2019-03-29T01:27:19.579Z,18.60
2019-03-29T01:31:24.457Z,18.07
2019-03-29T01:35:29.283Z,17.43
2019-03-29T01:39:34.103Z,19.37
2019-03-29T01:43:39.007Z,15.97
2019-03-29T01:47:43.910Z,16.20
2019-03-29T01:51:48.733Z,15.07
2019-03-29T01:55:54.431Z,15.00
2019-03-29T01:59:59.242Z,15.47
2019-03-29T02:04:05.816Z,13.93
2019-03-29T02:08:10.656Z,13.83
2019-03-29T02:12:15.472Z,16.43
2019-03-29T02:16:20.282Z,10.27
2019-03-29T02:20:25.110Z,12.80
2019-03-29T02:24:29.887Z,14.33
2019-03-29T02:28:34.696Z,11.53
2019-03-29T02:32:39.532Z,12.13
2019-03-29T02:36:44.346Z,17.53
2019-03-29T02:40:50.879Z,15.83
2019-03-29T02:44:55.634Z,18.13
2019-03-29T02:49:00.507Z,15.73
2019-03-29T02:53:05.315Z,18.23
2019-03-29T02:57:10.120Z,16.23
2019-03-29T03:01:15.008Z,15.40
2019-03-29T03:05:19.772Z,18.03
2019-03-29T03:09:24.579Z,15.63
2019-03-29T03:13:29.342Z,14.97
2019-03-29T03:17:35.315Z,12.13
2019-03-29T03:21:40.240Z,15.33
2019-03-29T03:25:45.038Z,15.30
2019-03-29T03:29:49.836Z,13.73
2019-03-29T03:33:54.635Z,14.33
2019-03-29T03:37:59.396Z,13.77
2019-03-29T03:42:04.174Z,14.40
2019-03-29T03:46:08.938Z,13.43
2019-03-29T03:50:42.132Z,20.47
2019-03-29T03:54:46.916Z,15.10
2019-03-29T03:58:52.704Z,18.70
2019-03-29T04:02:57.433Z,15.90
2019-03-29T04:07:02.213Z,16.53
2019-03-29T04:11:07.064Z,16.20
2019-03-29T04:15:11.921Z,22.23
2019-03-29T04:19:16.716Z,18.30
2019-03-29T04:23:21.478Z,17.70
2019-03-29T04:27:26.276Z,15.03
2019-03-29T04:31:31.154Z,15.27
2019-03-29T04:35:35.942Z,15.90
2019-03-29T04:39:40.728Z,21.23
2019-03-29T04:43:45.490Z,17.47
2019-03-29T04:47:50.531Z,13.37
2019-03-29T04:51:55.587Z,14.67
2019-03-29T04:56:00.351Z,23.00
2019-03-29T05:00:08.974Z,16.10
2019-03-29T05:04:13.791Z,18.07
2019-03-29T05:08:18.628Z,15.40
2019-03-29T05:12:23.340Z,18.13
2019-03-29T05:16:28.127Z,17.00
2019-03-29T05:20:32.975Z,13.07
2019-03-29T05:24:37.805Z,13.03
2019-03-29T05:28:42.534Z,12.83
2019-03-29T05:32:47.299Z,12.73
2019-03-29T05:36:52.058Z,13.33
2019-03-29T05:40:56.807Z,13.40
2019-03-29T05:45:01.578Z,15.30
2019-03-29T05:49:06.308Z,13.90
2019-03-29T05:53:11.076Z,13.53
2019-03-29T05:57:15.844Z,15.80
2019-03-29T06:01:20.631Z,19.37
2019-03-29T06:05:25.445Z,20.83
2019-03-29T06:09:30.221Z,19.37
2019-03-29T06:13:34.984Z,19.40
2019-03-29T06:17:48.397Z,16.23
2019-03-29T06:21:46.363Z,17.97
2019-03-29T06:25:51.252Z,20.97
2019-03-29T06:29:56.001Z,20.13
2019-03-29T06:34:00.771Z,21.33
2019-03-29T06:38:08.703Z,29.57
2019-03-29T06:42:13.472Z,27.47
2019-03-29T06:46:18.306Z,25.07
2019-03-29T06:50:23.115Z,25.27
2019-03-29T06:54:27.881Z,30.27
2019-03-29T06:58:32.674Z,31.60
2019-03-29T07:02:37.450Z,27.03
2019-03-29T07:06:42.202Z,27.20
2019-03-29T07:10:46.955Z,30.67
2019-03-29T07:14:51.708Z,26.27
2019-03-29T07:18:57.794Z,29.13
2019-03-29T07:23:02.592Z,31.23
2019-03-29T07:27:07.946Z,26.70
2019-03-29T07:31:12.767Z,24.03
2019-03-29T07:35:17.503Z,23.77
2019-03-29T07:39:22.258Z,31.93
2019-03-29T07:43:27.083Z,27.07
2019-03-29T07:47:31.851Z,21.60
2019-03-29T07:51:36.737Z,18.97
2019-03-29T07:55:44.311Z,23.10
2019-03-29T07:59:49.864Z,22.13
2019-03-29T08:03:55.424Z,18.37
2019-03-29T08:08:00.304Z,17.50
2019-03-29T08:12:05.109Z,17.90
2019-03-29T08:16:09.931Z,16.20
2019-03-29T08:20:38.799Z,17.03
2019-03-29T08:24:21.221Z,15.63
2019-03-29T08:28:25.994Z,15.63
2019-03-29T08:32:30.770Z,18.00
2019-03-29T08:36:35.519Z,10.60
2019-03-29T08:40:40.288Z,12.77
2019-03-29T08:44:45.043Z,12.90
2019-03-29T08:48:50.198Z,13.50
2019-03-29T08:52:55.066Z,11.67
2019-03-29T08:56:59.881Z,13.33
2019-03-29T09:01:04.691Z,12.60
2019-03-29T09:05:09.716Z,12.37
2019-03-29T09:09:14.637Z,15.33
2019-03-29T09:13:19.476Z,14.30
2019-03-29T09:17:24.280Z,11.87
2019-03-29T09:21:29.042Z,13.37
2019-03-29T09:25:33.820Z,12.00
2019-03-29T09:29:38.599Z,15.43
2019-03-29T09:33:43.381Z,13.10
2019-03-29T09:37:48.139Z,11.37
2019-03-29T09:41:52.984Z,13.07
2019-03-29T09:45:57.767Z,11.40
2019-03-29T09:50:02.519Z,14.77
2019-03-29T09:54:07.301Z,15.37
2019-03-29T09:58:12.081Z,12.97
2019-03-29T10:02:16.857Z,12.27
2019-03-29T10:06:21.616Z,12.23
2019-03-29T10:10:26.383Z,16.20
2019-03-29T10:14:33.395Z,11.43
2019-03-29T10:18:37.577Z,10.37
2019-03-29T10:22:42.319Z,10.43
2019-03-29T10:26:47.086Z,11.87
2019-03-29T10:30:51.855Z,11.47
2019-03-29T10:34:56.619Z,11.27
2019-03-29T10:39:01.384Z,11.87
2019-03-29T10:43:06.299Z,11.80
2019-03-29T10:47:11.076Z,12.63
2019-03-29T10:51:15.852Z,13.20
2019-03-29T10:55:20.606Z,11.60
2019-03-29T10:59:27.823Z,11.10
2019-03-29T11:03:31.792Z,11.43
2019-03-29T11:07:36.527Z,12.87
2019-03-29T11:11:41.298Z,12.57
2019-03-29T11:15:46.084Z,12.93
2019-03-29T11:19:50.847Z,16.43
2019-03-29T11:23:55.607Z,13.73
2019-03-29T11:28:00.347Z,12.80
2019-03-29T11:32:05.303Z,22.53
2019-03-29T11:36:10.063Z,13.97
2019-03-29T11:40:14.843Z,12.67
2019-03-29T11:44:19.602Z,22.37
2019-03-29T11:48:24.347Z,13.63
2019-03-29T11:52:29.116Z,12.13
2019-03-29T11:56:34.043Z,13.37
2019-03-29T12:00:39.404Z,11.20
2019-03-29T12:04:44.163Z,12.97
2019-03-29T12:08:48.901Z,13.07
2019-03-29T12:12:53.672Z,12.67
2019-03-29T12:16:58.438Z,14.90
2019-03-29T12:21:03.199Z,13.90
2019-03-29T12:25:08.249Z,12.73
2019-03-29T12:29:13.020Z,12.73
2019-03-29T12:33:17.795Z,12.33
2019-03-29T12:37:22.536Z,11.73
2019-03-29T12:41:27.316Z,12.70
2019-03-29T12:45:32.195Z,11.60
2019-03-29T12:49:36.954Z,15.13
2019-03-29T12:53:41.690Z,12.23
2019-03-29T12:57:46.474Z,12.63
2019-03-29T13:01:51.263Z,19.47
2019-03-29T13:05:56.051Z,13.83
2019-03-29T13:10:19.646Z,13.07
2019-03-29T13:14:24.392Z,12.17
2019-03-29T13:18:29.159Z,12.50
2019-03-29T13:22:34.772Z,16.97
2019-03-29T13:26:39.850Z,15.90
2019-03-29T13:30:44.629Z,13.13
2019-03-29T13:34:51.337Z,12.97
2019-03-29T13:38:55.934Z,16.37
2019-03-29T13:43:00.711Z,13.10
2019-03-29T13:47:05.683Z,14.47
2019-03-29T13:51:10.459Z,17.10
2019-03-29T13:59:18.763Z,12.57
2019-03-29T14:03:23.546Z,12.60
2019-03-29T14:07:28.327Z,13.47
2019-03-29T14:11:33.123Z,14.23
2019-03-29T14:15:37.906Z,13.03
2019-03-29T14:19:42.671Z,12.47
2019-03-29T14:23:47.431Z,13.07
2019-03-29T14:27:52.230Z,13.60
2019-03-29T14:31:57.018Z,12.93
2019-03-29T14:36:01.786Z,15.67
2019-03-29T14:40:07.914Z,13.60
2019-03-29T14:44:12.668Z,13.00
2019-03-29T14:48:17.514Z,11.67
2019-03-29T14:52:22.336Z,11.50
2019-03-29T14:56:27.632Z,13.43
2019-03-29T15:00:41.156Z,12.87
2019-03-29T15:04:45.915Z,14.37
2019-03-29T15:08:50.717Z,12.43
2019-03-29T15:12:56.657Z,11.90
2019-03-29T15:17:01.456Z,11.97
2019-03-29T15:21:06.252Z,12.83
2019-03-29T15:25:11.016Z,11.63
2019-03-29T15:29:15.891Z,11.90
2019-03-29T15:37:47.672Z,12.10
2019-03-29T15:41:52.548Z,11.87
2019-03-29T15:45:57.300Z,12.43
2019-03-29T15:50:02.090Z,11.77
2019-03-29T15:54:06.901Z,11.57
2019-03-29T15:58:11.705Z,12.93
2019-03-29T16:02:16.642Z,11.53
2019-03-29T16:06:20.700Z,13.57
2019-03-29T16:10:25.512Z,11.60
2019-03-29T16:14:30.362Z,12.90
2019-03-29T16:18:35.211Z,12.93
2019-03-29T16:22:40.092Z,10.70
2019-03-29T16:26:44.947Z,11.77
2019-03-29T16:30:49.740Z,11.43
2019-03-29T16:34:54.572Z,14.83
2019-03-29T16:38:59.481Z,11.10
2019-03-29T16:43:04.296Z,12.70
2019-03-29T16:47:09.165Z,12.37
2019-03-29T16:51:13.977Z,14.03
2019-03-29T16:55:18.753Z,11.90
2019-03-29T16:59:23.568Z,12.80
2019-03-29T17:03:28.776Z,16.77
2019-03-29T17:07:33.707Z,12.63
2019-03-29T17:11:38.668Z,13.83
2019-03-29T17:15:43.456Z,13.60
2019-03-29T17:19:48.234Z,13.03
2019-03-29T17:23:56.109Z,12.40
2019-03-29T17:28:00.874Z,11.73
2019-03-29T17:32:05.661Z,12.77
2019-03-29T17:36:10.451Z,11.27
2019-03-29T17:40:16.528Z,12.23
2019-03-29T17:44:21.308Z,12.80
2019-03-29T17:48:26.096Z,11.97
2019-03-29T17:52:30.871Z,12.50
2019-03-29T17:56:35.675Z,14.13
2019-03-29T18:00:40.610Z,13.07
2019-03-29T18:04:45.465Z,15.63
2019-03-29T18:08:50.497Z,16.70
2019-03-29T18:12:55.399Z,20.00
2019-03-29T18:17:00.136Z,25.93
2019-03-29T18:21:04.925Z,23.00
2019-03-29T18:25:09.913Z,12.77
2019-03-29T18:29:14.740Z,18.40
2019-03-29T18:33:19.988Z,18.23
2019-03-29T18:37:24.775Z,16.60
2019-03-29T18:41:29.592Z,16.70
2019-03-29T18:45:34.452Z,15.43
2019-03-29T18:49:40.718Z,20.73
2019-03-29T18:53:45.487Z,20.90
2019-03-29T18:57:50.317Z,17.57
2019-03-29T19:01:55.396Z,14.47
2019-03-29T19:06:02.672Z,19.10
2019-03-29T19:10:07.847Z,17.23
2019-03-29T19:14:12.612Z,18.10
2019-03-29T19:18:16.521Z,24.77
2019-03-29T19:22:21.316Z,20.23
2019-03-29T19:26:29.220Z,20.43
2019-03-29T19:30:34.032Z,16.47
2019-03-29T19:34:38.901Z,17.27
2019-03-29T19:38:43.664Z,22.00
2019-03-29T19:42:48.559Z,18.57
2019-03-29T19:46:53.354Z,14.60
2019-03-29T19:50:58.131Z,15.63
2019-03-29T19:55:02.981Z,17.70
2019-03-29T19:59:07.739Z,18.53
2019-03-29T20:03:12.531Z,21.37
2019-03-29T20:07:20.301Z,18.93
2019-03-29T20:11:23.880Z,19.40
2019-03-29T20:15:29.204Z,23.50
2019-03-29T20:19:33.940Z,21.70
2019-03-29T20:23:40.447Z,24.67
2019-03-29T20:27:45.699Z,21.00
2019-03-29T20:31:50.826Z,20.50
2019-03-29T20:35:55.664Z,21.10
2019-03-29T20:40:00.418Z,21.47
2019-03-29T20:44:05.230Z,20.33
2019-03-29T20:48:10.127Z,19.00
2019-03-29T20:52:14.918Z,18.63
2019-03-29T20:56:19.759Z,21.07
2019-03-29T21:00:24.509Z,19.30
2019-03-29T21:04:29.272Z,11.10
2019-03-29T21:08:34.067Z,13.93
2019-03-29T21:12:38.884Z,13.87
2019-03-29T21:16:44.063Z,13.67
2019-03-29T21:20:48.847Z,29.57
2019-03-29T21:24:53.880Z,18.13
2019-03-29T21:28:58.860Z,20.47
2019-03-29T21:33:04.078Z,21.17
2019-03-29T21:37:08.955Z,17.60
2019-03-29T21:41:13.755Z,20.47
2019-03-29T21:45:28.748Z,20.30
2019-03-29T21:49:27.021Z,18.80
2019-03-29T21:53:32.938Z,14.10
2019-03-29T21:57:38.130Z,18.43
2019-03-29T22:01:43.577Z,19.70
2019-03-29T22:05:49.546Z,19.23
2019-03-29T22:09:56.195Z,20.13
2019-03-29T22:14:01.635Z,18.07
2019-03-29T22:18:07.572Z,18.00
2019-03-29T22:22:13.716Z,27.57
2019-03-29T22:26:19.253Z,18.87
2019-03-29T22:30:24.698Z,15.23
2019-03-29T22:34:29.845Z,16.37
2019-03-29T22:38:35.327Z,14.93
2019-03-29T22:42:40.748Z,15.70
2019-03-29T22:46:45.775Z,15.90
2019-03-29T22:50:52.296Z,16.87
2019-03-29T22:54:58.559Z,15.57
2019-03-29T22:59:03.540Z,14.53
2019-03-29T23:03:09.795Z,19.70
2019-03-29T23:07:15.193Z,19.87
2019-03-29T23:11:20.502Z,16.47
2019-03-29T23:15:25.382Z,16.70
2019-03-29T23:19:30.760Z,19.43
2019-03-29T23:23:35.633Z,17.23
2019-03-29T23:27:40.559Z,14.60
2019-03-29T23:31:45.556Z,15.27
2019-03-29T23:35:50.800Z,16.17
2019-03-29T23:39:54.943Z,16.77
2019-03-29T23:44:00.183Z,24.40
2019-03-29T23:48:05.268Z,23.77
2019-03-29T23:52:10.161Z,22.80
2019-03-29T23:56:15.416Z,24.40
